createdAt,value
2017-08-04T00:00:25.860Z,999.5
2017-08-04T00:01:27.260Z,999.5
2017-08-04T00:02:28.663Z,999.5
2017-08-04T00:03:30.056Z,999.5
2017-08-04T00:04:31.459Z,999.5
2017-08-04T00:05:32.862Z,999.5
2017-08-04T00:06:34.259Z,999.5
2017-08-04T00:07:35.655Z,999.5
2017-08-04T00:08:37.054Z,999.5
2017-08-04T00:09:38.450Z,999.6
2017-08-04T00:10:39.849Z,999.6
2017-08-04T00:11:41.247Z,999.6
2017-08-04T00:12:42.651Z,999.6
2017-08-04T00:13:44.046Z,999.5
2017-08-04T00:14:45.441Z,999.5
2017-08-04T00:15:46.840Z,999.5
2017-08-04T00:16:48.236Z,999.5
2017-08-04T00:17:49.636Z,999.5
2017-08-04T00:18:51.039Z,999.4
2017-08-04T00:19:52.438Z,999.5
2017-08-04T00:20:53.831Z,999.5
2017-08-04T00:21:55.228Z,999.4
2017-08-04T00:22:56.627Z,999.4
2017-08-04T00:23:58.019Z,999.4
2017-08-04T00:24:59.422Z,999.4
2017-08-04T00:26:00.821Z,999.3
2017-08-04T00:27:02.230Z,999.3
2017-08-04T00:28:03.627Z,999.3
2017-08-04T00:29:05.023Z,999.3
2017-08-04T00:30:06.420Z,999.3
2017-08-04T00:31:07.816Z,999.2
2017-08-04T00:32:09.220Z,999.3
2017-08-04T00:33:10.616Z,999.3
2017-08-04T00:34:12.013Z,999.3
2017-08-04T00:35:13.415Z,999.3
2017-08-04T00:36:14.808Z,999.2
2017-08-04T00:37:16.206Z,999.3
2017-08-04T00:38:17.605Z,999.3
2017-08-04T00:39:19.001Z,999.3
2017-08-04T00:40:20.402Z,999.3
2017-08-04T00:41:21.808Z,999.3
2017-08-04T00:42:23.210Z,999.3
2017-08-04T00:43:24.607Z,999.3
2017-08-04T00:44:26.004Z,999.4
2017-08-04T00:45:27.407Z,999.3
2017-08-04T00:46:28.804Z,999.3
2017-08-04T00:47:30.205Z,999.4
2017-08-04T00:48:31.601Z,999.4
2017-08-04T00:49:32.998Z,999.3
2017-08-04T00:50:34.394Z,999.3
2017-08-04T00:51:35.789Z,999.3
2017-08-04T00:52:37.185Z,999.3
2017-08-04T00:53:38.583Z,999.3
2017-08-04T00:54:39.987Z,999.3
2017-08-04T00:55:41.386Z,999.3
2017-08-04T00:56:42.786Z,999.3
2017-08-04T00:57:44.178Z,999.3
2017-08-04T00:58:45.582Z,999.3
2017-08-04T00:59:46.983Z,999.3
2017-08-04T01:00:48.383Z,999.3
2017-08-04T01:01:49.785Z,999.3
2017-08-04T01:02:51.183Z,999.3
2017-08-04T01:03:52.578Z,999.4
2017-08-04T01:04:53.981Z,999.4
2017-08-04T01:05:55.380Z,999.4
2017-08-04T01:06:56.778Z,999.4
2017-08-04T01:07:58.176Z,999.4
2017-08-04T01:08:59.577Z,999.4
2017-08-04T01:10:00.976Z,999.4
2017-08-04T01:11:02.372Z,999.4
2017-08-04T01:12:03.765Z,999.4
2017-08-04T01:13:05.171Z,999.4
2017-08-04T01:14:06.562Z,999.4
2017-08-04T01:15:07.958Z,999.4
2017-08-04T01:16:09.359Z,999.5
2017-08-04T01:17:10.755Z,999.5
2017-08-04T01:18:12.154Z,999.5
2017-08-04T01:19:13.555Z,999.6
2017-08-04T01:20:14.944Z,999.6
2017-08-04T01:21:16.345Z,999.6
2017-08-04T01:22:17.746Z,999.6
2017-08-04T01:23:19.148Z,999.6
2017-08-04T01:24:20.548Z,999.6
2017-08-04T01:25:21.944Z,999.6
2017-08-04T01:26:23.344Z,999.6
2017-08-04T01:27:24.745Z,999.6
2017-08-04T01:28:26.142Z,999.7
2017-08-04T01:29:27.544Z,999.6
2017-08-04T01:30:28.944Z,999.6
2017-08-04T01:31:30.343Z,999.6
2017-08-04T01:32:31.740Z,999.6
2017-08-04T01:33:33.144Z,999.6
2017-08-04T01:34:34.540Z,999.6
2017-08-04T01:35:35.938Z,999.5
2017-08-04T01:36:37.338Z,999.6
2017-08-04T01:37:38.737Z,999.6
2017-08-04T01:38:40.138Z,999.6
2017-08-04T01:39:41.533Z,999.6
2017-08-04T01:40:42.929Z,999.6
2017-08-04T01:41:44.330Z,999.6
2017-08-04T01:42:45.725Z,999.6
2017-08-04T01:43:47.121Z,999.6
2017-08-04T01:44:48.521Z,999.6
2017-08-04T01:45:49.926Z,999.6
2017-08-04T01:46:51.316Z,999.5
2017-08-04T01:47:52.717Z,999.5
2017-08-04T01:48:54.112Z,999.6
2017-08-04T01:49:55.510Z,999.6
2017-08-04T01:50:56.911Z,999.6
2017-08-04T01:51:58.317Z,999.6
2017-08-04T01:52:59.714Z,999.6
2017-08-04T01:54:01.113Z,999.6
2017-08-04T01:55:02.548Z,999.6
2017-08-04T01:56:03.943Z,999.6
2017-08-04T01:57:05.344Z,999.6
2017-08-04T01:58:06.741Z,999.6
2017-08-04T01:59:08.138Z,999.7
2017-08-04T02:00:09.538Z,999.7
2017-08-04T02:01:10.934Z,999.6
2017-08-04T02:02:12.327Z,999.6
2017-08-04T02:03:13.725Z,999.6
2017-08-04T02:04:15.124Z,999.6
2017-08-04T02:05:16.524Z,999.6
2017-08-04T02:06:17.932Z,999.7
2017-08-04T02:07:19.335Z,999.7
2017-08-04T02:08:20.729Z,999.7
2017-08-04T02:09:22.128Z,999.7
2017-08-04T02:10:23.522Z,999.7
2017-08-04T02:11:24.921Z,999.7
2017-08-04T02:12:26.322Z,999.6
2017-08-04T02:13:27.719Z,999.6
2017-08-04T02:14:29.131Z,999.6
2017-08-04T02:15:30.522Z,999.6
2017-08-04T02:16:31.917Z,999.6
2017-08-04T02:17:33.314Z,999.6
2017-08-04T02:18:34.709Z,999.7
2017-08-04T02:19:36.109Z,999.7
2017-08-04T02:20:37.510Z,999.7
2017-08-04T02:21:38.908Z,999.7
2017-08-04T02:22:40.305Z,999.6
2017-08-04T02:23:41.702Z,999.7
2017-08-04T02:24:43.099Z,999.7
2017-08-04T02:25:44.498Z,999.7
2017-08-04T02:26:45.897Z,999.7
2017-08-04T02:27:47.297Z,999.6
2017-08-04T02:28:48.690Z,999.6
2017-08-04T02:29:50.087Z,999.6
2017-08-04T02:30:51.482Z,999.6
2017-08-04T02:31:52.879Z,999.6
2017-08-04T02:32:54.312Z,999.6
2017-08-04T02:33:55.710Z,999.6
2017-08-04T02:34:57.115Z,999.6
2017-08-04T02:35:58.510Z,999.6
2017-08-04T02:36:59.910Z,999.7
2017-08-04T02:38:01.300Z,999.7
2017-08-04T02:39:02.709Z,999.6
2017-08-04T02:40:04.109Z,999.6
2017-08-04T02:41:05.506Z,999.6
2017-08-04T02:42:06.907Z,999.6
2017-08-04T02:43:08.307Z,999.6
2017-08-04T02:44:09.701Z,999.6
2017-08-04T02:45:11.102Z,999.6
2017-08-04T02:46:12.505Z,999.6
2017-08-04T02:47:13.893Z,999.6
2017-08-04T02:48:15.291Z,999.6
2017-08-04T02:49:16.687Z,999.5
2017-08-04T02:50:18.088Z,999.6
2017-08-04T02:51:19.484Z,999.6
2017-08-04T02:52:20.878Z,999.6
2017-08-04T02:53:22.274Z,999.6
2017-08-04T02:54:23.672Z,999.6
2017-08-04T02:55:25.068Z,999.6
2017-08-04T02:56:26.466Z,999.6
2017-08-04T02:57:27.868Z,999.6
2017-08-04T02:58:29.267Z,999.6
2017-08-04T02:59:30.661Z,999.6
2017-08-04T03:00:32.054Z,999.6
2017-08-04T03:01:33.458Z,999.6
2017-08-04T03:02:34.857Z,999.5
2017-08-04T03:03:36.256Z,999.5
2017-08-04T03:04:37.652Z,999.5
2017-08-04T03:05:39.049Z,999.6
2017-08-04T03:06:40.441Z,999.6
2017-08-04T03:07:41.840Z,999.6
2017-08-04T03:08:43.235Z,999.5
2017-08-04T03:09:44.632Z,999.6
2017-08-04T03:10:46.033Z,999.5
2017-08-04T03:11:47.430Z,999.6
2017-08-04T03:12:48.829Z,999.5
2017-08-04T03:13:50.227Z,999.5
2017-08-04T03:14:51.623Z,999.5
2017-08-04T03:15:53.025Z,999.5
2017-08-04T03:16:54.425Z,999.5
2017-08-04T03:17:55.820Z,999.5
2017-08-04T03:18:57.217Z,999.4
2017-08-04T03:19:58.610Z,999.5
2017-08-04T03:21:00.003Z,999.5
2017-08-04T03:22:01.405Z,999.5
2017-08-04T03:23:02.800Z,999.5
2017-08-04T03:24:04.199Z,999.4
2017-08-04T03:25:05.596Z,999.5
2017-08-04T03:26:07.002Z,999.5
2017-08-04T03:27:08.394Z,999.5
2017-08-04T03:28:09.794Z,999.4
2017-08-04T03:29:11.191Z,999.4
2017-08-04T03:30:12.592Z,999.4
2017-08-04T03:31:13.987Z,999.4
2017-08-04T03:32:15.384Z,999.4
2017-08-04T03:33:16.778Z,999.4
2017-08-04T03:34:18.175Z,999.4
2017-08-04T03:35:19.571Z,999.4
2017-08-04T03:36:20.968Z,999.4
2017-08-04T03:37:22.365Z,999.4
2017-08-04T03:38:23.761Z,999.3
2017-08-04T03:39:25.159Z,999.4
2017-08-04T03:40:26.558Z,999.4
2017-08-04T03:41:27.984Z,999.4
2017-08-04T03:42:29.358Z,999.4
2017-08-04T03:43:30.752Z,999.5
2017-08-04T03:44:32.149Z,999.5
2017-08-04T03:45:33.547Z,999.5
2017-08-04T03:46:34.948Z,999.4
2017-08-04T03:47:36.347Z,999.4
2017-08-04T03:48:37.743Z,999.4
2017-08-04T03:49:39.136Z,999.4
2017-08-04T03:50:40.541Z,999.4
2017-08-04T03:51:41.935Z,999.5
2017-08-04T03:52:43.336Z,999.5
2017-08-04T03:53:44.733Z,999.4
2017-08-04T03:54:46.137Z,999.4
2017-08-04T03:55:47.528Z,999.5
2017-08-04T03:56:48.927Z,999.4
2017-08-04T03:57:50.328Z,999.4
2017-08-04T03:58:51.721Z,999.4
2017-08-04T03:59:53.124Z,999.5
2017-08-04T04:00:54.522Z,999.4
2017-08-04T04:01:55.923Z,999.5
2017-08-04T04:02:57.320Z,999.4
2017-08-04T04:03:58.714Z,999.5
2017-08-04T04:05:00.112Z,999.5
2017-08-04T04:06:01.511Z,999.5
2017-08-04T04:07:02.910Z,999.5
2017-08-04T04:08:04.311Z,999.5
2017-08-04T04:09:05.712Z,999.5
2017-08-04T04:10:07.109Z,999.5
2017-08-04T04:11:08.507Z,999.5
2017-08-04T04:12:09.914Z,999.6
2017-08-04T04:13:11.303Z,999.6
2017-08-04T04:14:12.704Z,999.6
2017-08-04T04:15:14.104Z,999.6
2017-08-04T04:16:15.503Z,999.6
2017-08-04T04:17:16.900Z,999.6
2017-08-04T04:18:18.294Z,999.6
2017-08-04T04:19:19.692Z,999.6
2017-08-04T04:20:21.089Z,999.6
2017-08-04T04:21:22.494Z,999.7
2017-08-04T04:22:23.892Z,999.7
2017-08-04T04:23:25.294Z,999.7
2017-08-04T04:24:26.692Z,999.6
2017-08-04T04:25:28.089Z,999.7
2017-08-04T04:26:29.493Z,999.6
2017-08-04T04:27:30.885Z,999.7
2017-08-04T04:28:32.286Z,999.6
2017-08-04T04:29:33.686Z,999.7
2017-08-04T04:30:35.084Z,999.7
2017-08-04T04:31:36.500Z,999.7
2017-08-04T04:32:37.897Z,999.7
2017-08-04T04:33:39.293Z,999.7
2017-08-04T04:34:40.696Z,999.6
2017-08-04T04:35:42.093Z,999.6
2017-08-04T04:36:43.495Z,999.6
2017-08-04T04:37:44.897Z,999.6
2017-08-04T04:38:46.291Z,999.6
2017-08-04T04:39:47.691Z,999.6
2017-08-04T04:40:49.090Z,999.6
2017-08-04T04:41:50.488Z,999.6
2017-08-04T04:42:51.887Z,999.6
2017-08-04T04:43:53.287Z,999.5
2017-08-04T04:44:54.688Z,999.6
2017-08-04T04:45:56.086Z,999.6
2017-08-04T04:46:57.497Z,999.6
2017-08-04T04:47:58.897Z,999.6
2017-08-04T04:49:00.296Z,999.5
2017-08-04T04:50:01.734Z,999.5
2017-08-04T04:51:03.137Z,999.5
2017-08-04T04:52:04.546Z,999.5
2017-08-04T04:53:05.944Z,999.5
2017-08-04T04:54:07.342Z,999.5
2017-08-04T04:55:08.821Z,999.5
2017-08-04T04:56:10.215Z,999.5
2017-08-04T04:57:11.619Z,999.5
2017-08-04T04:58:13.018Z,999.5
2017-08-04T04:59:14.420Z,999.5
2017-08-04T05:00:15.817Z,999.5
2017-08-04T05:01:17.224Z,999.5
2017-08-04T05:02:18.618Z,999.4
2017-08-04T05:03:20.015Z,999.5
2017-08-04T05:04:21.417Z,999.5
2017-08-04T05:05:22.823Z,999.5
2017-08-04T05:06:24.224Z,999.5
2017-08-04T05:07:25.618Z,999.5
2017-08-04T05:08:27.014Z,999.6
2017-08-04T05:09:28.414Z,999.5
2017-08-04T05:10:29.810Z,999.5
2017-08-04T05:11:31.254Z,999.6
2017-08-04T05:12:32.659Z,999.5
2017-08-04T05:13:34.057Z,999.6
2017-08-04T05:14:35.453Z,999.6
2017-08-04T05:15:36.853Z,999.6
2017-08-04T05:16:38.300Z,999.6
2017-08-04T05:17:39.702Z,999.6
2017-08-04T05:18:41.183Z,999.6
2017-08-04T05:19:42.586Z,999.6
2017-08-04T05:20:43.987Z,999.6
2017-08-04T05:21:45.388Z,999.6
2017-08-04T05:22:46.794Z,999.6
2017-08-04T05:23:48.201Z,999.6
2017-08-04T05:24:49.599Z,999.6
2017-08-04T05:25:51.001Z,999.6
2017-08-04T05:26:52.403Z,999.6
2017-08-04T05:27:53.806Z,999.6
2017-08-04T05:28:55.215Z,999.6
2017-08-04T05:29:56.602Z,999.6
2017-08-04T05:30:58.001Z,999.6
2017-08-04T05:31:59.404Z,999.7
2017-08-04T05:33:00.838Z,999.7
2017-08-04T05:34:02.250Z,999.7
2017-08-04T05:35:03.653Z,999.7
2017-08-04T05:36:05.054Z,999.8
2017-08-04T05:37:06.451Z,999.8
2017-08-04T05:38:07.853Z,999.8
2017-08-04T05:39:09.251Z,999.8
2017-08-04T05:40:10.668Z,999.8
2017-08-04T05:41:12.071Z,999.8
2017-08-04T05:42:13.472Z,999.9
2017-08-04T05:43:14.876Z,999.8
2017-08-04T05:44:16.276Z,999.9
2017-08-04T05:45:17.676Z,999.9
2017-08-04T05:46:19.073Z,999.9
2017-08-04T05:47:20.477Z,999.9
2017-08-04T05:48:21.895Z,999.9
2017-08-04T05:49:23.294Z,999.8
2017-08-04T05:50:24.692Z,999.8
2017-08-04T05:51:26.090Z,999.9
2017-08-04T05:52:27.490Z,999.9
2017-08-04T05:53:28.891Z,999.9
2017-08-04T05:54:30.304Z,999.9
2017-08-04T05:55:31.709Z,999.8
2017-08-04T05:56:33.119Z,999.8
2017-08-04T05:57:34.517Z,999.8
2017-08-04T05:58:35.920Z,999.8
2017-08-04T05:59:37.322Z,999.8
2017-08-04T06:00:38.720Z,999.9
2017-08-04T06:01:40.122Z,999.8
2017-08-04T06:02:41.525Z,999.8
2017-08-04T06:03:42.931Z,999.8
2017-08-04T06:04:44.328Z,999.8
2017-08-04T06:05:45.726Z,999.8
2017-08-04T06:06:47.127Z,999.8
2017-08-04T06:07:48.481Z,999.9
2017-08-04T06:08:49.882Z,999.9
2017-08-04T06:09:51.285Z,999.8
2017-08-04T06:10:52.703Z,999.9
2017-08-04T06:11:54.100Z,999.9
2017-08-04T06:12:55.526Z,999.8
2017-08-04T06:13:56.931Z,999.9
2017-08-04T06:14:58.330Z,999.9
2017-08-04T06:15:59.726Z,999.8
2017-08-04T06:17:01.134Z,999.9
2017-08-04T06:18:02.543Z,999.9
2017-08-04T06:19:03.940Z,999.9
2017-08-04T06:20:05.339Z,999.8
2017-08-04T06:21:06.737Z,999.9
2017-08-04T06:22:08.134Z,999.9
2017-08-04T06:23:09.542Z,1000.0
2017-08-04T06:24:10.951Z,999.9
2017-08-04T06:25:12.388Z,1000.0
2017-08-04T06:26:13.789Z,1000.0
2017-08-04T06:27:15.211Z,1000.0
2017-08-04T06:28:16.611Z,1000.0
2017-08-04T06:29:18.025Z,1000.0
2017-08-04T06:30:19.440Z,1000.0
2017-08-04T06:31:20.845Z,1000.0
2017-08-04T06:32:22.249Z,1000.1
2017-08-04T06:33:23.659Z,1000.1
2017-08-04T06:34:25.053Z,1000.1
2017-08-04T06:35:26.458Z,1000.1
2017-08-04T06:36:27.856Z,1000.1
2017-08-04T06:37:29.263Z,1000.0
2017-08-04T06:38:30.667Z,1000.1
2017-08-04T06:39:32.068Z,1000.1
2017-08-04T06:40:33.468Z,1000.2
2017-08-04T06:41:34.869Z,1000.2
2017-08-04T06:42:36.277Z,1000.2
2017-08-04T06:43:37.673Z,1000.1
2017-08-04T06:44:39.078Z,1000.1
2017-08-04T06:45:40.481Z,1000.2
2017-08-04T06:46:41.894Z,1000.2
2017-08-04T06:47:43.292Z,1000.2
2017-08-04T06:48:44.695Z,1000.2
2017-08-04T06:49:46.098Z,1000.2
2017-08-04T06:50:47.501Z,1000.1
2017-08-04T06:51:48.906Z,1000.2
2017-08-04T06:52:50.309Z,1000.1
2017-08-04T06:53:51.715Z,1000.2
2017-08-04T06:54:53.120Z,1000.2
2017-08-04T06:55:54.524Z,1000.2
2017-08-04T06:56:55.943Z,1000.1
2017-08-04T06:57:57.330Z,1000.1
2017-08-04T06:58:58.741Z,1000.1
2017-08-04T07:00:00.142Z,1000.1
2017-08-04T07:01:01.546Z,1000.1
2017-08-04T07:02:02.948Z,1000.1
2017-08-04T07:03:04.352Z,1000.1
2017-08-04T07:04:05.763Z,1000.0
2017-08-04T07:05:07.161Z,1000.1
2017-08-04T07:06:08.583Z,1000.1
2017-08-04T07:07:09.988Z,1000.1
2017-08-04T07:08:11.396Z,1000.1
2017-08-04T07:09:12.804Z,1000.1
2017-08-04T07:10:14.207Z,1000.1
2017-08-04T07:11:15.613Z,1000.1
2017-08-04T07:12:17.015Z,1000.1
2017-08-04T07:13:18.420Z,1000.0
2017-08-04T07:14:19.824Z,1000.2
2017-08-04T07:15:21.233Z,1000.2
2017-08-04T07:16:22.640Z,1000.2
2017-08-04T07:17:24.042Z,1000.1
2017-08-04T07:18:25.441Z,1000.1
2017-08-04T07:19:26.854Z,1000.1
2017-08-04T07:20:28.481Z,1000.1
2017-08-04T07:21:29.968Z,1000.1
2017-08-04T07:22:31.380Z,1000.1
2017-08-04T07:23:32.778Z,1000.0
2017-08-04T07:24:34.181Z,1000.0
2017-08-04T07:25:35.588Z,1000.1
2017-08-04T07:26:36.993Z,1000.1
2017-08-04T07:27:38.401Z,1000.1
2017-08-04T07:28:39.803Z,1000.1
2017-08-04T07:29:41.211Z,1000.1
2017-08-04T07:30:42.612Z,1000.1
2017-08-04T07:31:44.015Z,1000.1
2017-08-04T07:32:45.418Z,1000.1
2017-08-04T07:33:46.825Z,1000.1
2017-08-04T07:34:48.228Z,1000.1
2017-08-04T07:35:49.632Z,1000.1
2017-08-04T07:36:51.039Z,1000.0
2017-08-04T07:37:52.439Z,1000.1
2017-08-04T07:38:53.863Z,1000.1
2017-08-04T07:39:55.252Z,1000.1
2017-08-04T07:40:56.658Z,1000.2
2017-08-04T07:41:58.062Z,1000.1
2017-08-04T07:42:59.468Z,1000.1
2017-08-04T07:44:00.878Z,1000.0
2017-08-04T07:45:02.289Z,1000.1
2017-08-04T07:46:03.691Z,1000.1
2017-08-04T07:47:05.094Z,1000.1
2017-08-04T07:48:06.498Z,1000.0
2017-08-04T07:49:07.906Z,1000.1
2017-08-04T07:50:09.314Z,1000.1
2017-08-04T07:51:10.732Z,1000.1
2017-08-04T07:52:12.152Z,1000.1
2017-08-04T07:53:13.537Z,1000.0
2017-08-04T07:54:14.940Z,1000.1
2017-08-04T07:55:16.343Z,1000.1
2017-08-04T07:56:17.752Z,1000.0
2017-08-04T07:57:19.157Z,1000.1
2017-08-04T07:58:20.563Z,1000.1
2017-08-04T07:59:21.965Z,1000.1
2017-08-04T08:00:23.368Z,1000.1
2017-08-04T08:01:24.777Z,1000.2
2017-08-04T08:02:26.178Z,1000.1
2017-08-04T08:03:27.585Z,1000.1
2017-08-04T08:04:28.996Z,1000.1
2017-08-04T08:05:30.397Z,1000.1
2017-08-04T08:06:31.798Z,1000.1
2017-08-04T08:07:33.201Z,1000.2
2017-08-04T08:08:34.607Z,1000.1
2017-08-04T08:09:36.011Z,1000.2
2017-08-04T08:10:37.418Z,1000.2
2017-08-04T08:11:38.830Z,1000.1
2017-08-04T08:12:40.238Z,1000.1
2017-08-04T08:13:41.643Z,1000.1
2017-08-04T08:14:43.047Z,1000.2
2017-08-04T08:15:44.453Z,1000.1
2017-08-04T08:16:45.854Z,1000.1
2017-08-04T08:17:47.263Z,1000.1
2017-08-04T08:18:48.667Z,1000.2
2017-08-04T08:19:50.076Z,1000.2
2017-08-04T08:20:51.478Z,1000.2
2017-08-04T08:21:52.883Z,1000.1
2017-08-04T08:22:54.284Z,1000.2
2017-08-04T08:23:55.729Z,1000.1
2017-08-04T08:24:57.135Z,1000.2
2017-08-04T08:25:58.541Z,1000.1
2017-08-04T08:26:59.946Z,1000.1
2017-08-04T08:28:01.352Z,1000.1
2017-08-04T08:29:02.777Z,1000.0
2017-08-04T08:30:04.186Z,1000.0
2017-08-04T08:31:05.589Z,1000.2
2017-08-04T08:32:06.991Z,1000.0
2017-08-04T08:33:08.404Z,1000.1
2017-08-04T08:34:09.806Z,1000.1
2017-08-04T08:35:11.208Z,1000.1
2017-08-04T08:36:12.625Z,1000.2
2017-08-04T08:37:14.019Z,1000.1
2017-08-04T08:38:15.426Z,1000.1
2017-08-04T08:39:16.834Z,1000.1
2017-08-04T08:40:18.240Z,1000.1
2017-08-04T08:41:19.644Z,1000.2
2017-08-04T08:42:21.081Z,1000.2
2017-08-04T08:43:22.488Z,1000.1
2017-08-04T08:44:23.920Z,1000.1
2017-08-04T08:45:25.371Z,1000.1
2017-08-04T08:46:26.786Z,1000.2
2017-08-04T08:47:28.194Z,1000.1
2017-08-04T08:48:29.606Z,1000.2
2017-08-04T08:49:31.031Z,1000.1
2017-08-04T08:50:32.463Z,1000.1
2017-08-04T08:51:33.867Z,1000.2
2017-08-04T08:52:35.274Z,1000.1
2017-08-04T08:53:36.681Z,1000.2
2017-08-04T08:54:38.087Z,1000.1
2017-08-04T08:55:39.493Z,1000.1
2017-08-04T08:56:40.898Z,1000.1
2017-08-04T08:57:42.303Z,1000.2
2017-08-04T08:58:43.706Z,1000.1
2017-08-04T08:59:45.117Z,1000.2
2017-08-04T09:00:46.522Z,1000.2
2017-08-04T09:01:47.930Z,1000.2
2017-08-04T09:02:49.337Z,1000.2
2017-08-04T09:03:50.741Z,1000.3
2017-08-04T09:04:52.146Z,1000.2
2017-08-04T09:05:53.553Z,1000.2
2017-08-04T09:06:54.959Z,1000.3
2017-08-04T09:07:56.370Z,1000.3
2017-08-04T09:08:57.769Z,1000.3
2017-08-04T09:09:59.174Z,1000.3
2017-08-04T09:11:00.579Z,1000.3
2017-08-04T09:12:01.996Z,1000.3
2017-08-04T09:13:03.407Z,1000.3
2017-08-04T09:14:04.810Z,1000.3
2017-08-04T09:15:06.247Z,1000.2
2017-08-04T09:16:07.653Z,1000.3
2017-08-04T09:17:09.063Z,1000.2
2017-08-04T09:18:10.466Z,1000.3
2017-08-04T09:19:11.867Z,1000.3
2017-08-04T09:20:13.277Z,1000.3
2017-08-04T09:21:14.683Z,1000.3
2017-08-04T09:22:16.092Z,1000.3
2017-08-04T09:23:17.498Z,1000.3
2017-08-04T09:24:18.907Z,1000.2
2017-08-04T09:25:20.310Z,1000.3
2017-08-04T09:26:21.718Z,1000.4
2017-08-04T09:27:23.126Z,1000.4
2017-08-04T09:28:24.540Z,1000.4
2017-08-04T09:29:25.947Z,1000.4
2017-08-04T09:30:27.360Z,1000.4
2017-08-04T09:31:28.770Z,1000.4
2017-08-04T09:32:30.175Z,1000.3
2017-08-04T09:33:31.581Z,1000.4
2017-08-04T09:34:32.985Z,1000.4
2017-08-04T09:35:34.391Z,1000.3
2017-08-04T09:36:35.798Z,1000.3
2017-08-04T09:37:37.209Z,1000.3
2017-08-04T09:38:38.620Z,1000.3
2017-08-04T09:39:40.025Z,1000.3
2017-08-04T09:40:41.429Z,1000.3
2017-08-04T09:41:42.833Z,1000.3
2017-08-04T09:42:44.238Z,1000.3
2017-08-04T09:43:45.644Z,1000.3
2017-08-04T09:44:47.051Z,1000.3
2017-08-04T09:45:48.460Z,1000.4
2017-08-04T09:46:49.864Z,1000.4
2017-08-04T09:47:51.268Z,1000.4
2017-08-04T09:48:52.677Z,1000.3
2017-08-04T09:49:54.081Z,1000.4
2017-08-04T09:50:55.485Z,1000.4
2017-08-04T09:51:56.895Z,1000.4
2017-08-04T09:52:58.336Z,1000.5
2017-08-04T09:53:59.743Z,1000.5
2017-08-04T09:55:01.148Z,1000.4
2017-08-04T09:56:02.553Z,1000.4
2017-08-04T09:57:03.959Z,1000.4
2017-08-04T09:58:05.371Z,1000.4
2017-08-04T09:59:06.778Z,1000.5
2017-08-04T10:00:08.184Z,1000.4
2017-08-04T10:01:09.594Z,1000.3
2017-08-04T10:02:11.001Z,1000.3
2017-08-04T10:03:12.435Z,1000.3
2017-08-04T10:04:13.828Z,1000.4
2017-08-04T10:05:15.227Z,1000.4
2017-08-04T10:06:16.636Z,1000.3
2017-08-04T10:07:18.050Z,1000.3
2017-08-04T10:08:20.130Z,1000.2
2017-08-04T10:09:21.587Z,1000.3
2017-08-04T10:10:22.983Z,1000.3
2017-08-04T10:11:24.394Z,1000.3
2017-08-04T10:12:26.067Z,1000.2
2017-08-04T10:13:27.476Z,1000.2
2017-08-04T10:14:28.884Z,1000.3
2017-08-04T10:15:30.287Z,1000.3
2017-08-04T10:16:31.694Z,1000.2
2017-08-04T10:17:33.099Z,1000.3
2017-08-04T10:18:34.502Z,1000.3
2017-08-04T10:19:35.909Z,1000.3
2017-08-04T10:20:37.319Z,1000.3
2017-08-04T10:21:38.723Z,1000.3
2017-08-04T10:22:40.130Z,1000.3
2017-08-04T10:23:41.533Z,1000.3
2017-08-04T10:24:42.942Z,1000.2
2017-08-04T10:25:44.343Z,1000.2
2017-08-04T10:26:45.747Z,1000.1
2017-08-04T10:27:47.158Z,1000.2
2017-08-04T10:28:48.567Z,1000.2
2017-08-04T10:29:49.972Z,1000.2
2017-08-04T10:30:51.376Z,1000.2
2017-08-04T10:31:52.782Z,1000.3
2017-08-04T10:32:54.189Z,1000.3
2017-08-04T10:33:55.591Z,1000.2
2017-08-04T10:34:57.004Z,1000.3
2017-08-04T10:35:58.412Z,1000.2
2017-08-04T10:36:59.815Z,1000.2
2017-08-04T10:38:01.219Z,1000.3
2017-08-04T10:39:02.622Z,1000.2
2017-08-04T10:40:04.026Z,1000.2
2017-08-04T10:41:05.443Z,1000.2
2017-08-04T10:42:06.850Z,1000.3
2017-08-04T10:43:08.257Z,1000.2
2017-08-04T10:44:09.659Z,1000.3
2017-08-04T10:45:11.061Z,1000.3
2017-08-04T10:46:12.479Z,1000.3
2017-08-04T10:47:13.885Z,1000.3
2017-08-04T10:48:15.291Z,1000.3
2017-08-04T10:49:16.696Z,1000.3
2017-08-04T10:50:18.120Z,1000.4
2017-08-04T10:51:19.514Z,1000.3
2017-08-04T10:52:20.918Z,1000.4
2017-08-04T10:53:22.321Z,1000.5
2017-08-04T10:54:23.719Z,1000.5
2017-08-04T10:55:25.131Z,1000.5
2017-08-04T10:56:26.548Z,1000.6
2017-08-04T10:57:27.957Z,1000.6
2017-08-04T10:58:29.374Z,1000.7
2017-08-04T10:59:30.776Z,1000.5
2017-08-04T11:00:32.183Z,1000.6
2017-08-04T11:01:33.589Z,1000.6
2017-08-04T11:02:35.002Z,1000.6
2017-08-04T11:03:36.404Z,1000.6
2017-08-04T11:04:37.813Z,1000.6
2017-08-04T11:05:39.227Z,1000.7
2017-08-04T11:06:40.620Z,1000.6
2017-08-04T11:07:42.027Z,1000.7
2017-08-04T11:08:43.441Z,1000.6
2017-08-04T11:09:44.849Z,1000.7
2017-08-04T11:10:46.259Z,1000.6
2017-08-04T11:11:47.700Z,1000.7
2017-08-04T11:12:49.107Z,1000.5
2017-08-04T11:13:50.513Z,1000.5
2017-08-04T11:14:51.921Z,1000.5
2017-08-04T11:15:53.328Z,1000.5
2017-08-04T11:16:54.741Z,1000.5
2017-08-04T11:17:56.151Z,1000.5
2017-08-04T11:18:57.565Z,1000.5
2017-08-04T11:19:58.967Z,1000.5
2017-08-04T11:21:00.373Z,1000.5
2017-08-04T11:22:01.793Z,1000.5
2017-08-04T11:23:03.200Z,1000.5
2017-08-04T11:24:04.607Z,1000.5
2017-08-04T11:25:06.020Z,1000.5
2017-08-04T11:26:07.430Z,1000.5
2017-08-04T11:27:08.844Z,1000.5
2017-08-04T11:28:10.242Z,1000.5
2017-08-04T11:29:11.650Z,1000.4
2017-08-04T11:30:13.072Z,1000.4
2017-08-04T11:31:14.473Z,1000.4
2017-08-04T11:32:15.881Z,1000.4
2017-08-04T11:33:17.293Z,1000.3
2017-08-04T11:34:18.696Z,1000.3
2017-08-04T11:35:20.105Z,1000.4
2017-08-04T11:36:21.566Z,1000.4
2017-08-04T11:37:22.971Z,1000.4
2017-08-04T11:38:24.385Z,1000.5
2017-08-04T11:39:25.788Z,1000.5
2017-08-04T11:40:27.196Z,1000.5
2017-08-04T11:41:28.637Z,1000.5
2017-08-04T11:42:30.047Z,1000.5
2017-08-04T11:43:31.452Z,1000.5
2017-08-04T11:44:32.858Z,1000.5
2017-08-04T11:45:34.267Z,1000.6
2017-08-04T11:46:35.674Z,1000.6
2017-08-04T11:47:37.127Z,1000.6
2017-08-04T11:48:38.530Z,1000.5
2017-08-04T11:49:39.942Z,1000.5
2017-08-04T11:50:41.342Z,1000.5
2017-08-04T11:51:42.749Z,1000.6
2017-08-04T11:52:44.158Z,1000.5
2017-08-04T11:53:45.562Z,1000.5
2017-08-04T11:54:46.970Z,1000.5
2017-08-04T11:55:48.378Z,1000.7
2017-08-04T11:56:49.845Z,1000.7
2017-08-04T11:57:51.269Z,1000.6
2017-08-04T11:58:52.685Z,1000.7
2017-08-04T11:59:54.098Z,1000.7
2017-08-04T12:00:55.508Z,1000.7
2017-08-04T12:01:56.924Z,1000.7
2017-08-04T12:02:58.469Z,1000.7
2017-08-04T12:03:59.892Z,1000.7
2017-08-04T12:05:01.298Z,1000.6
2017-08-04T12:06:02.765Z,1000.6
2017-08-04T12:07:04.244Z,1000.7
2017-08-04T12:08:05.646Z,1000.7
2017-08-04T12:09:07.061Z,1000.7
2017-08-04T12:10:08.502Z,1000.7
2017-08-04T12:11:09.982Z,1000.8
2017-08-04T12:12:11.395Z,1000.9
2017-08-04T12:13:12.807Z,1000.8
2017-08-04T12:14:14.337Z,1000.8
2017-08-04T12:15:16.056Z,1000.9
2017-08-04T12:16:17.523Z,1000.9
2017-08-04T12:17:18.962Z,1000.9
2017-08-04T12:18:20.383Z,1000.9
2017-08-04T12:19:21.845Z,1000.9
2017-08-04T12:20:23.247Z,1000.9
2017-08-04T12:21:24.663Z,1000.9
2017-08-04T12:22:26.145Z,1000.9
2017-08-04T12:23:27.575Z,1001.0
2017-08-04T12:24:28.991Z,1001.1
2017-08-04T12:25:30.397Z,1000.9
2017-08-04T12:26:31.855Z,1000.8
2017-08-04T12:27:33.265Z,1000.8
2017-08-04T12:28:34.673Z,1000.8
2017-08-04T12:29:36.130Z,1000.8
2017-08-04T12:30:37.558Z,1000.8
2017-08-04T12:31:39.011Z,1000.8
2017-08-04T12:32:40.500Z,1000.9
2017-08-04T12:33:41.960Z,1000.9
2017-08-04T12:34:43.371Z,1000.9
2017-08-04T12:35:44.806Z,1000.9
2017-08-04T12:36:46.288Z,1000.9
2017-08-04T12:37:47.696Z,1000.9
2017-08-04T12:38:49.099Z,1000.9
2017-08-04T12:39:50.512Z,1001.0
2017-08-04T12:40:51.917Z,1001.0
2017-08-04T12:41:53.330Z,1000.9
2017-08-04T12:42:54.733Z,1000.9
2017-08-04T12:43:56.154Z,1001.0
2017-08-04T12:44:57.577Z,1001.0
2017-08-04T12:45:58.982Z,1000.9
2017-08-04T12:47:00.389Z,1001.0
2017-08-04T12:48:01.792Z,1000.9
2017-08-04T12:49:03.206Z,1001.0
2017-08-04T12:50:04.620Z,1001.0
2017-08-04T12:51:06.028Z,1001.1
2017-08-04T12:52:07.440Z,1001.1
2017-08-04T12:53:08.844Z,1001.2
2017-08-04T12:54:10.252Z,1001.2
2017-08-04T12:55:11.660Z,1001.1
2017-08-04T12:56:13.063Z,1001.1
2017-08-04T12:57:14.495Z,1001.4
2017-08-04T12:58:15.883Z,1001.1